createdAt,value
2023-04-01T00:01:00.513Z,9.50
2023-04-01T00:03:30.892Z,9.60
2023-04-01T00:06:01.409Z,9.60
2023-04-01T00:08:30.864Z,9.70
2023-04-01T00:11:01.429Z,9.80
2023-04-01T00:13:30.515Z,9.80
2023-04-01T00:16:00.253Z,9.70
2023-04-01T00:18:29.569Z,9.80
2023-04-01T00:20:58.981Z,9.90
2023-04-01T00:23:27.494Z,9.60
2023-04-01T00:25:56.406Z,9.60
2023-04-01T00:28:26.148Z,9.50
2023-04-01T00:30:54.899Z,9.50
2023-04-01T00:33:23.002Z,9.40
2023-04-01T00:35:51.039Z,9.30
2023-04-01T00:38:19.880Z,9.20
2023-04-01T00:40:48.455Z,9.20
2023-04-01T00:43:19.304Z,9.10
2023-04-01T00:45:50.639Z,9.00
2023-04-01T00:48:21.635Z,9.10
2023-04-01T00:50:52.968Z,9.00
2023-04-01T00:53:22.509Z,9.00
2023-04-01T00:55:56.108Z,9.00
2023-04-01T00:58:29.311Z,9.00
2023-04-01T01:01:00.986Z,8.90
2023-04-01T01:03:29.086Z,9.00
2023-04-01T01:06:26.898Z,9.00
2023-04-01T01:09:28.122Z,9.00
2023-04-01T01:12:06.419Z,9.00
2023-04-01T01:14:51.368Z,9.00
2023-04-01T01:17:28.028Z,9.00
2023-04-01T01:20:26.149Z,9.00
2023-04-01T01:23:12.189Z,9.10
2023-04-01T01:25:46.584Z,9.10
2023-04-01T01:28:31.088Z,9.20
2023-04-01T01:31:09.800Z,9.20
2023-04-01T01:34:01.817Z,9.20
2023-04-01T01:36:36.036Z,9.20
2023-04-01T01:39:06.343Z,9.40
2023-04-01T01:41:36.716Z,9.50
2023-04-01T01:44:07.100Z,9.60
2023-04-01T01:46:35.546Z,9.50
2023-04-01T01:49:05.284Z,9.30
2023-04-01T01:51:35.171Z,9.10
2023-04-01T01:54:03.142Z,9.10
2023-04-01T01:56:32.730Z,9.10
2023-04-01T01:59:05.384Z,9.10
2023-04-01T02:01:37.728Z,9.10
2023-04-01T02:04:06.910Z,9.10
2023-04-01T02:06:41.461Z,9.00
2023-04-01T02:09:12.120Z,9.10
2023-04-01T02:11:46.449Z,9.00
2023-04-01T02:14:16.794Z,9.10
2023-04-01T09:24:49.738Z,16.20
2023-04-01T09:27:29.219Z,18.30
2023-04-01T09:30:23.269Z,17.70
2023-04-01T09:33:19.186Z,17.20
2023-04-01T09:35:49.220Z,16.90
2023-04-01T09:38:32.055Z,16.70
2023-04-01T09:41:08.361Z,16.80
2023-04-01T09:43:51.866Z,16.90
2023-04-01T09:46:27.931Z,17.10
2023-04-01T09:49:28.434Z,17.60
2023-04-01T09:52:09.041Z,18.50
2023-04-01T09:54:54.117Z,18.80
2023-04-01T09:57:51.907Z,18.50
2023-04-01T10:00:33.698Z,18.20
2023-04-01T10:03:40.155Z,17.70
2023-04-01T10:06:43.832Z,17.30
2023-04-01T10:09:56.936Z,16.90
2023-04-01T10:12:58.436Z,16.70
2023-04-01T10:15:49.342Z,16.70
2023-04-01T10:18:59.108Z,16.50
2023-04-01T10:22:07.141Z,16.90
2023-04-01T10:25:04.247Z,17.00
2023-04-01T10:27:58.323Z,17.50
2023-04-01T10:30:44.066Z,17.60
2023-04-01T10:34:03.196Z,17.30
2023-04-01T10:36:45.356Z,16.90
2023-04-01T10:39:51.841Z,16.80
2023-04-01T10:43:02.872Z,16.50
2023-04-01T10:46:02.285Z,16.40
2023-04-01T10:48:52.388Z,16.10
2023-04-01T10:51:52.708Z,15.90
2023-04-01T10:54:34.797Z,15.80
2023-04-01T10:57:11.930Z,15.50
2023-04-01T11:00:17.188Z,15.50
2023-04-01T11:03:19.214Z,15.50
2023-04-01T11:06:26.852Z,15.20
2023-04-01T11:09:44.106Z,14.80
2023-04-01T11:13:02.482Z,14.50
2023-04-01T11:15:51.531Z,14.20
2023-04-01T11:18:56.952Z,14.20
2023-04-01T11:21:57.180Z,14.30
2023-04-01T11:24:57.663Z,14.40
2023-04-01T11:27:48.010Z,14.60
2023-04-01T11:30:29.240Z,14.70
2023-04-01T11:33:04.222Z,14.90
2023-04-01T11:35:59.501Z,14.80
2023-04-01T11:38:54.930Z,14.70
2023-04-01T11:41:32.920Z,14.70
2023-04-01T11:44:17.145Z,14.60
2023-04-01T11:47:04.748Z,14.70
2023-04-01T11:49:46.068Z,14.60
2023-04-01T11:52:49.736Z,14.50
2023-04-01T11:55:27.757Z,14.30
2023-04-01T11:58:18.308Z,13.90
2023-04-01T12:01:09.488Z,13.60
2023-04-01T12:04:16.561Z,13.50
2023-04-01T12:06:53.441Z,13.10
2023-04-01T12:09:33.033Z,12.70
2023-04-01T12:12:13.192Z,12.70
2023-04-01T12:14:52.085Z,12.50
2023-04-01T12:17:31.339Z,12.50
2023-04-01T12:20:11.594Z,12.50
2023-04-01T12:22:52.895Z,12.60
2023-04-01T12:25:30.717Z,12.30
2023-04-01T12:28:16.025Z,12.10
2023-04-01T12:30:53.267Z,11.90
2023-04-01T12:33:41.872Z,11.80
2023-04-01T12:36:31.908Z,11.80
2023-04-01T12:39:35.363Z,11.80
2023-04-01T12:42:12.515Z,11.90
2023-04-01T12:45:00.194Z,11.70
2023-04-01T12:48:07.287Z,11.80
2023-04-01T12:51:07.344Z,11.70
2023-04-01T12:53:51.836Z,11.80
2023-04-01T12:56:31.768Z,11.70
2023-04-01T12:59:26.452Z,11.70
2023-04-01T13:02:09.614Z,11.60
2023-04-01T13:04:58.542Z,11.50
2023-04-01T13:07:44.516Z,11.40
2023-04-01T13:10:22.576Z,11.50
2023-04-01T13:13:16.917Z,11.40
2023-04-01T13:15:48.796Z,11.40
2023-04-01T13:18:30.880Z,11.30
2023-04-01T13:21:10.960Z,11.50
2023-04-01T13:23:57.228Z,11.50
2023-04-01T13:26:31.731Z,11.50
2023-04-01T13:29:08.968Z,11.50
2023-04-01T13:31:57.285Z,11.50
2023-04-01T13:34:49.139Z,11.50
2023-04-01T13:37:35.631Z,11.40
2023-04-01T13:40:30.628Z,11.50
2023-04-01T13:43:03.427Z,11.50
2023-04-01T13:45:44.186Z,11.40
2023-04-01T13:48:31.700Z,11.30
2023-04-01T13:51:31.142Z,11.20
2023-04-01T13:54:33.656Z,11.20
2023-04-01T13:57:22.036Z,11.10
2023-04-01T14:00:06.056Z,11.30
2023-04-01T14:02:59.130Z,11.30
2023-04-01T14:05:44.201Z,11.50
2023-04-01T14:08:22.004Z,11.60
2023-04-01T14:11:04.268Z,11.70
2023-04-01T14:13:43.226Z,11.70
2023-04-01T14:16:37.450Z,11.90
2023-04-01T14:19:21.317Z,11.70
2023-04-01T14:21:58.594Z,11.70
2023-04-01T14:24:39.487Z,11.70
2023-04-01T14:27:43.199Z,11.80
2023-04-01T14:30:39.917Z,11.90
2023-04-01T14:33:23.323Z,11.80
2023-04-01T14:36:07.145Z,11.70
2023-04-01T14:38:49.187Z,11.60
2023-04-01T14:41:27.392Z,11.70
2023-04-01T14:44:13.828Z,12.00
2023-04-01T14:47:09.546Z,11.90
2023-04-01T14:49:40.610Z,12.00
2023-04-01T14:52:17.102Z,12.10
2023-04-01T14:54:48.514Z,12.00
2023-04-01T14:57:19.673Z,12.00
2023-04-01T14:59:52.442Z,12.20
2023-04-01T15:02:46.363Z,12.20
2023-04-01T15:05:28.482Z,12.20
2023-04-01T15:08:19.915Z,12.10
2023-04-01T15:11:16.144Z,12.10
2023-04-01T15:14:01.246Z,12.10
2023-04-01T15:16:36.819Z,11.90
2023-04-01T15:19:16.893Z,11.90
2023-04-01T15:22:10.787Z,12.00
2023-04-01T15:24:48.973Z,12.00
2023-04-01T15:27:30.126Z,11.90
2023-04-01T15:30:17.070Z,12.00
2023-04-01T15:32:54.869Z,12.00
2023-04-01T15:35:34.225Z,11.80
2023-04-01T15:38:11.822Z,11.80
2023-04-01T15:40:50.103Z,11.70
2023-04-01T15:43:29.169Z,11.70
2023-04-01T15:46:29.488Z,11.70
2023-04-01T15:49:10.592Z,11.70
2023-04-01T15:51:51.078Z,11.70
2023-04-01T15:54:34.507Z,11.80
2023-04-01T15:57:17.716Z,11.80
2023-04-01T16:00:08.415Z,11.80
2023-04-01T16:02:40.906Z,11.70
2023-04-01T16:05:23.628Z,11.70
2023-04-01T16:08:02.443Z,11.80
2023-04-01T16:11:00.140Z,11.80
2023-04-01T16:13:45.368Z,11.80
2023-04-01T16:16:25.823Z,12.00
2023-04-01T16:19:23.443Z,12.00
2023-04-01T16:21:54.287Z,12.00
2023-04-01T16:24:32.958Z,12.10
2023-04-01T16:27:06.497Z,12.00
2023-04-01T16:29:46.053Z,12.00
2023-04-01T16:32:25.213Z,11.80
2023-04-01T16:35:04.360Z,11.80
2023-04-01T16:37:38.485Z,11.70
2023-04-01T16:40:18.943Z,11.70
2023-04-01T16:42:53.488Z,11.70
2023-04-01T16:45:35.481Z,11.50
2023-04-01T16:48:12.352Z,11.50
2023-04-01T16:50:49.315Z,11.50
2023-04-01T16:53:22.177Z,11.50
2023-04-01T16:55:54.142Z,11.60
2023-04-01T16:58:27.588Z,11.50
2023-04-01T17:01:04.767Z,11.40
2023-04-01T17:03:38.705Z,11.30
2023-04-01T17:06:18.678Z,11.40
2023-04-01T17:09:04.326Z,11.20
2023-04-01T17:11:39.593Z,11.20
2023-04-01T17:14:18.331Z,11.20
2023-04-01T17:17:02.911Z,11.10
2023-04-01T17:19:49.388Z,11.10
2023-04-01T17:22:29.500Z,11.10
2023-04-01T17:25:42.310Z,11.20
2023-04-01T17:28:23.789Z,11.30
2023-04-01T17:31:01.149Z,11.30
2023-04-01T17:33:56.617Z,11.20
2023-04-01T17:36:35.958Z,11.20
2023-04-01T17:39:26.258Z,11.10
2023-04-01T17:41:59.463Z,11.10
2023-04-01T17:44:41.077Z,11.00
2023-04-01T17:47:34.948Z,11.00
2023-04-01T17:50:19.980Z,11.00
2023-04-01T17:52:55.794Z,11.10
2023-04-01T17:55:52.960Z,10.90
2023-04-01T17:58:23.006Z,10.90
2023-04-01T18:01:09.231Z,10.80
2023-04-01T18:03:59.102Z,10.80
2023-04-01T18:06:38.230Z,10.70
2023-04-01T18:09:19.040Z,10.70
2023-04-01T18:11:55.298Z,10.70
2023-04-01T18:14:42.269Z,10.80
2023-04-01T18:17:27.876Z,10.80
2023-04-01T18:20:17.157Z,10.80
2023-04-01T18:22:50.639Z,10.80
2023-04-01T18:25:26.185Z,10.80
2023-04-01T18:28:16.244Z,10.90
2023-04-01T18:30:46.170Z,10.80
2023-04-01T18:33:25.147Z,10.90
2023-04-01T18:35:56.561Z,10.80
2023-04-01T18:38:33.422Z,10.80
2023-04-01T18:41:23.686Z,10.80
2023-04-01T18:44:04.073Z,10.60
2023-04-01T18:46:39.244Z,10.70
2023-04-01T18:49:15.999Z,10.70
2023-04-01T18:51:50.596Z,10.70
2023-04-01T18:54:27.360Z,10.60
2023-04-01T18:57:07.056Z,10.80
2023-04-01T18:59:40.742Z,10.70
2023-04-01T19:02:22.113Z,10.90
2023-04-01T19:04:59.482Z,11.00
2023-04-01T19:07:53.087Z,11.00
2023-04-01T19:10:33.457Z,10.90
2023-04-01T19:13:23.853Z,10.90
2023-04-01T19:16:01.581Z,10.80
2023-04-01T19:18:49.210Z,10.80
2023-04-01T19:21:21.671Z,10.80
2023-04-01T19:24:27.495Z,10.70
2023-04-01T19:27:05.157Z,10.60
2023-04-01T19:29:44.938Z,10.60
2023-04-01T19:32:23.824Z,10.60
2023-04-01T19:34:59.568Z,10.50
2023-04-01T19:37:38.867Z,10.40
2023-04-01T19:40:36.731Z,10.40
2023-04-01T19:43:17.238Z,10.40
2023-04-01T19:45:53.573Z,10.50
2023-04-01T19:48:39.620Z,10.50
2023-04-01T19:51:11.923Z,10.50
2023-04-01T19:53:47.041Z,10.50
2023-04-01T19:56:19.565Z,10.50
2023-04-01T19:58:56.674Z,10.40
2023-04-01T20:01:41.622Z,10.30
2023-04-01T20:04:17.006Z,10.20
2023-04-01T20:06:54.507Z,10.20
2023-04-01T20:09:56.067Z,10.10
2023-04-01T20:12:36.307Z,10.10
2023-04-01T20:15:21.285Z,9.90
2023-04-01T20:17:50.641Z,9.90
2023-04-01T20:20:23.581Z,9.70
2023-04-01T20:23:26.150Z,9.70
2023-04-01T20:25:58.158Z,9.70
2023-04-01T20:28:35.625Z,9.60
2023-04-01T20:31:27.233Z,9.60
2023-04-01T20:34:43.428Z,9.60
2023-04-01T20:37:32.488Z,9.60
2023-04-01T20:40:23.407Z,9.60
2023-04-01T20:43:05.476Z,9.60
2023-04-01T20:45:40.160Z,9.50
2023-04-01T20:48:37.587Z,9.80
2023-04-01T20:51:08.453Z,9.80
2023-04-01T20:53:43.765Z,9.90
2023-04-01T20:56:37.518Z,9.80
2023-04-01T20:59:27.910Z,9.80
2023-04-01T21:02:07.566Z,9.80
2023-04-01T21:04:48.850Z,9.80
2023-04-01T21:07:24.074Z,9.80
2023-04-01T21:10:09.049Z,9.90
2023-04-01T21:12:48.251Z,10.00
2023-04-01T21:15:35.743Z,10.00
2023-04-01T21:18:24.193Z,10.00
2023-04-01T21:21:18.300Z,10.00
2023-04-01T21:24:14.753Z,9.90
2023-04-01T21:26:52.916Z,9.90
2023-04-01T21:29:53.711Z,9.90
2023-04-01T21:33:00.068Z,9.90
2023-04-01T21:35:38.328Z,10.00
2023-04-01T21:38:37.259Z,9.90
2023-04-01T21:41:24.012Z,9.90
2023-04-01T21:44:33.862Z,9.90
2023-04-01T21:47:35.551Z,9.80
2023-04-01T21:50:34.553Z,9.70
2023-04-01T21:53:31.986Z,9.80
2023-04-01T21:56:35.187Z,9.90
2023-04-01T21:59:38.836Z,9.90
2023-04-01T22:02:54.819Z,9.90
2023-04-01T22:05:28.183Z,9.90
2023-04-01T22:08:03.979Z,9.90
2023-04-01T22:10:40.221Z,9.90
2023-04-01T22:13:17.895Z,9.90
2023-04-01T22:15:58.632Z,9.80
2023-04-01T22:18:35.244Z,9.70
2023-04-01T22:21:09.787Z,9.90
2023-04-01T22:23:48.888Z,9.90
2023-04-01T22:26:24.221Z,9.90
2023-04-01T22:28:59.106Z,10.10
2023-04-01T22:31:34.207Z,10.10
2023-04-01T22:34:08.629Z,10.00
2023-04-01T22:36:46.024Z,10.10
2023-04-01T22:39:26.956Z,10.20
2023-04-01T22:42:07.855Z,10.10
2023-04-01T22:44:54.249Z,10.10
2023-04-01T22:47:31.959Z,10.10
2023-04-01T22:50:05.858Z,10.20
2023-04-01T22:52:40.933Z,10.20
2023-04-01T22:55:15.604Z,10.20
2023-04-01T22:57:50.217Z,10.10
2023-04-01T23:00:25.111Z,10.20
2023-04-01T23:03:09.159Z,10.10
2023-04-01T23:05:45.321Z,10.00
2023-04-01T23:08:49.605Z,9.90
2023-04-01T23:11:20.602Z,10.00
2023-04-01T23:13:53.744Z,9.80
2023-04-01T23:16:30.545Z,9.80
2023-04-01T23:19:02.778Z,9.80
2023-04-01T23:21:37.756Z,9.90
2023-04-01T23:24:15.601Z,9.90
2023-04-01T23:26:51.926Z,9.80
2023-04-01T23:29:21.491Z,9.70
2023-04-01T23:31:58.868Z,9.70
2023-04-01T23:34:30.862Z,9.60
2023-04-01T23:37:03.058Z,9.70
2023-04-01T23:39:34.427Z,9.70
2023-04-01T23:42:06.728Z,9.70
2023-04-01T23:44:35.878Z,9.70
2023-04-01T23:47:07.179Z,9.60
2023-04-01T23:49:39.228Z,9.50
2023-04-01T23:52:15.681Z,9.60
2023-04-01T23:54:49.108Z,9.60
2023-04-01T23:57:20.705Z,9.50
